메인 페이지
METAR-TAF:

METAR-TAF

공항 :

튀니스 카르타고 국제공항

튀니스, 튀니지

위도: 36-50N, 경도: 010-14E, 고도: 3m

현재 날씨관측

예보는 37분 전, 22:00시(UTC)에 발표되었습니다.
동남동7kt동북동풍과 남남동풍을 오가는
온도 20°C
습도 68%
기압 1021 hPa
시정 10km 이상
1500m 미만 상공 구름 및 적란운 없음

METAR: DTTA 282200Z 12007KT 060V160 CAVOK 20/14 Q1021

시각: 23:37 (22:37 UTC)

예보

예보는 5 시간 37분 전, 17:00시(UTC)에 발표되었습니다.
예보 대상 시간: 28일 18시부터 29일 18시까지 (UTC)
북북동10kt
시정 10km 이상
고도 3000ft 상공 구름 조금

TAF: DTTA 281700Z 2818/2918 03010KT 9999 FEW030

4,000개 이상의 공항 관측 자료 및 예보 (METAR 및 TAF 보고).

지도상에서 검색 가능한 기상관측소가 노란 점과 빨간 점으로 표시되어 있습니다.

기상관측소 명을 보려면 표시 위로 마우스를 이동하세요.

날씨 관측과 예보를 보려면 클릭하세요.

지도 변경 : 확대하려면 엑스 표시가 있는 녹색 버튼, 축소하려면 빼기 표시가 있는 녹색 버튼, 다음 페이지의 지도를 보려면 녹색 화살표를 클릭하세요.


METAR-TAF: